Time;durP1;ratioP1;P1;durP2;ratioP2;P2;SDS_P1;SDS_P2;PMS_P1;PMS_P2;Temp;Humidity;BMP_temperature;BMP_pressure;BME280_temperature;BME280_humidity;BME280_pressure;Samples;Min_cycle;Max_cycle;Signal;HPM_P1;HPM_P2
2023/10/18 00:00:28;;;;;;;8.23;7.10;;;8.30;99.90;;;;;;5058039;28;20194;-81
2023/10/18 00:02:56;;;;;;;8.77;7.67;;;8.30;99.90;;;;;;5056437;28;20206;-81
2023/10/18 00:05:25;;;;;;;7.50;6.70;;;8.30;99.90;;;;;;5058281;28;20218;-81
2023/10/18 00:07:54;;;;;;;8.57;7.67;;;8.30;99.90;;;;;;5058178;28;20205;-81
2023/10/18 00:10:21;;;;;;;7.80;6.97;;;8.30;99.90;;;;;;5058584;28;20194;-81
2023/10/18 00:12:52;;;;;;;9.07;8.07;;;8.30;99.90;;;;;;5073017;28;20569;-81
2023/10/18 00:15:20;;;;;;;9.60;8.03;;;8.30;99.90;;;;;;5070813;28;20221;-81
2023/10/18 00:17:48;;;;;;;9.97;8.03;;;8.30;99.90;;;;;;5074559;28;20207;-81
2023/10/18 00:20:20;;;;;;;8.67;7.60;;;8.40;99.90;;;;;;5059431;28;20225;-81
2023/10/18 00:22:48;;;;;;;8.97;7.93;;;8.30;99.90;;;;;;5079882;23;20722;-84
2023/10/18 00:25:15;;;;;;;8.90;8.00;;;8.30;99.90;;;;;;5060867;28;20209;-83
2023/10/18 00:27:45;;;;;;;10.97;8.87;;;8.30;99.90;;;;;;5067007;28;20198;-83
2023/10/18 00:30:17;;;;;;;9.80;8.20;;;8.20;99.90;;;;;;5060071;28;20205;-83
2023/10/18 00:32:45;;;;;;;8.20;7.47;;;8.10;99.90;;;;;;5070930;28;20218;-84
2023/10/18 00:35:23;;;;;;;11.27;9.10;;;8.00;99.90;;;;;;5057540;28;20366;-83
2023/10/18 00:37:54;;;;;;;9.00;8.10;;;7.90;99.90;;;;;;5059066;28;20210;-86
2023/10/18 00:40:32;;;;;;;9.53;8.47;;;7.80;99.90;;;;;;5035037;28;20200;-83
2023/10/18 00:43:07;;;;;;;9.10;8.10;;;7.80;99.90;;;;;;5069699;28;20213;-83
2023/10/18 00:45:43;;;;;;;10.20;7.97;;;8.00;99.90;;;;;;5067304;28;20206;-83
2023/10/18 00:48:12;;;;;;;10.90;8.57;;;7.90;99.90;;;;;;5068480;28;20198;-85
2023/10/18 00:50:43;;;;;;;8.90;7.43;;;7.90;99.90;;;;;;5075792;28;20202;-83
2023/10/18 00:53:11;;;;;;;9.07;8.10;;;7.80;99.90;;;;;;5052836;28;20224;-83
2023/10/18 00:55:38;;;;;;;9.57;8.50;;;7.70;99.90;;;;;;5037948;28;20199;-83
2023/10/18 00:58:08;;;;;;;10.60;8.50;;;7.60;99.90;;;;;;5041176;28;20245;-83
2023/10/18 01:00:40;;;;;;;9.63;8.67;;;7.70;99.90;;;;;;5072257;28;20216;-84
2023/10/18 01:03:15;;;;;;;9.20;8.20;;;7.70;99.90;;;;;;5033112;28;20229;-84
2023/10/18 01:06:00;;;;;;;8.80;7.90;;;7.80;99.90;;;;;;5039463;28;20209;-84
2023/10/18 01:08:32;;;;;;;9.37;7.93;;;7.90;99.90;;;;;;5049285;28;20199;-86
2023/10/18 01:11:04;;;;;;;8.93;8.03;;;7.80;99.90;;;;;;5065532;28;20202;-85
2023/10/18 01:13:34;;;;;;;9.00;7.80;;;7.80;99.90;;;;;;5060479;28;20232;-84
2023/10/18 01:16:07;;;;;;;11.03;8.27;;;7.80;99.90;;;;;;5059783;28;20191;-87
2023/10/18 01:18:35;;;;;;;10.13;9.00;;;7.90;99.90;;;;;;5073128;28;20227;-84
2023/10/18 01:21:13;;;;;;;9.30;8.40;;;7.90;99.90;;;;;;5063319;28;20202;-84
2023/10/18 01:23:45;;;;;;;9.83;8.33;;;7.80;99.90;;;;;;5057730;28;20233;-83
2023/10/18 01:26:14;;;;;;;9.17;8.27;;;7.90;99.90;;;;;;5063651;28;20222;-83
2023/10/18 01:28:44;;;;;;;8.67;7.77;;;7.80;99.90;;;;;;5063665;28;20201;-86
2023/10/18 01:31:13;;;;;;;9.97;8.17;;;7.80;99.90;;;;;;5063410;28;20218;-86
2023/10/18 01:33:43;;;;;;;11.40;8.63;;;7.80;99.90;;;;;;5061200;28;20237;-84
2023/10/18 01:36:13;;;;;;;9.03;8.20;;;7.90;99.90;;;;;;5057159;28;20199;-84
2023/10/18 01:38:43;;;;;;;10.47;8.30;;;7.80;99.90;;;;;;5073257;28;20206;-83
2023/10/18 01:41:13;;;;;;;11.07;9.40;;;7.80;99.90;;;;;;5060711;28;20203;-83
2023/10/18 01:43:44;;;;;;;8.90;8.07;;;7.80;99.90;;;;;;5092349;28;20255;-84
2023/10/18 01:46:13;;;;;;;9.07;8.20;;;7.80;99.90;;;;;;5055514;28;20199;-83
2023/10/18 01:48:42;;;;;;;9.00;8.10;;;7.70;99.90;;;;;;5058950;28;20198;-85
2023/10/18 01:51:12;;;;;;;8.33;7.43;;;7.60;99.90;;;;;;5059753;28;20198;-84
2023/10/18 01:53:42;;;;;;;10.03;8.20;;;7.70;99.90;;;;;;5058065;28;20226;-83
2023/10/18 01:56:11;;;;;;;9.03;8.10;;;7.70;99.90;;;;;;5058099;28;20190;-83
2023/10/18 01:58:38;;;;;;;8.73;7.83;;;7.70;99.90;;;;;;5070928;28;20672;-83
2023/10/18 02:01:16;;;;;;;9.00;8.07;;;7.60;99.90;;;;;;5061363;28;20206;-83
2023/10/18 02:03:44;;;;;;;9.63;8.63;;;7.60;99.90;;;;;;5056481;28;20225;-83
2023/10/18 02:06:14;;;;;;;8.37;7.57;;;7.70;99.90;;;;;;5052079;28;20209;-83
2023/10/18 02:08:42;;;;;;;10.40;9.00;;;7.80;99.90;;;;;;5052410;28;20206;-83
2023/10/18 02:11:11;;;;;;;11.13;8.10;;;7.80;99.90;;;;;;5059412;28;20199;-83
2023/10/18 02:13:39;;;;;;;10.40;8.97;;;7.70;99.90;;;;;;5091070;28;20754;-83
2023/10/18 02:16:15;;;;;;;8.90;8.00;;;7.70;99.90;;;;;;5057925;28;20198;-83
2023/10/18 02:18:46;;;;;;;10.70;7.90;;;7.60;99.90;;;;;;5057327;28;20209;-83
2023/10/18 02:21:14;;;;;;;9.53;8.37;;;7.70;99.90;;;;;;5060493;28;20789;-83
2023/10/18 02:23:42;;;;;;;9.77;8.10;;;7.70;99.90;;;;;;5069910;28;20230;-85
2023/10/18 02:26:14;;;;;;;8.67;7.70;;;7.60;99.90;;;;;;5061126;28;20559;-83
2023/10/18 02:28:43;;;;;;;9.07;8.20;;;7.60;99.90;;;;;;5048533;28;20194;-82
2023/10/18 02:31:13;;;;;;;9.77;8.13;;;7.60;99.90;;;;;;5057035;28;20209;-83
2023/10/18 02:33:42;;;;;;;10.47;8.03;;;7.60;99.90;;;;;;5058156;28;20218;-82
2023/10/18 02:36:11;;;;;;;9.93;8.10;;;7.50;99.90;;;;;;5055151;28;20652;-83
2023/10/18 02:38:40;;;;;;;9.67;8.17;;;7.40;99.90;;;;;;5055646;28;20206;-83
2023/10/18 02:41:19;;;;;;;8.43;7.57;;;7.40;99.90;;;;;;5058737;28;20671;-83
2023/10/18 02:43:48;;;;;;;9.13;7.67;;;7.40;99.90;;;;;;5053829;28;20219;-83
2023/10/18 02:46:21;;;;;;;11.87;8.37;;;7.30;99.90;;;;;;5055504;28;20202;-83
2023/10/18 02:48:50;;;;;;;10.07;7.73;;;7.40;99.90;;;;;;5061351;28;20199;-83
2023/10/18 02:51:22;;;;;;;8.37;7.60;;;7.30;99.90;;;;;;5060501;28;20221;-86
2023/10/18 02:53:51;;;;;;;8.77;7.87;;;7.40;99.90;;;;;;5058253;28;20237;-82
2023/10/18 02:56:20;;;;;;;8.90;8.00;;;7.40;99.90;;;;;;5052423;28;20214;-83
2023/10/18 02:58:48;;;;;;;8.83;8.03;;;7.30;99.90;;;;;;5058665;28;20190;-85
2023/10/18 03:01:18;;;;;;;9.37;7.80;;;7.30;99.90;;;;;;5050609;28;20567;-83
2023/10/18 03:03:49;;;;;;;8.43;7.63;;;7.30;99.90;;;;;;5047458;28;20234;-83
2023/10/18 03:06:16;;;;;;;9.63;8.30;;;7.30;99.90;;;;;;5059455;28;20659;-85
2023/10/18 03:08:47;;;;;;;8.60;7.73;;;7.30;99.90;;;;;;5057065;28;20221;-83
2023/10/18 03:11:14;;;;;;;9.67;7.70;;;7.30;99.90;;;;;;5045621;28;20203;-84
2023/10/18 03:13:42;;;;;;;12.13;8.73;;;7.40;99.90;;;;;;5087717;28;20229;-84
2023/10/18 03:16:18;;;;;;;8.73;7.83;;;7.50;99.90;;;;;;5055493;28;20213;-83
2023/10/18 03:18:47;;;;;;;8.50;7.30;;;7.70;99.90;;;;;;5058326;28;20198;-83
2023/10/18 03:21:21;;;;;;;8.57;7.57;;;7.70;99.90;;;;;;5060559;28;20198;-83
2023/10/18 03:23:51;;;;;;;8.90;7.67;;;7.70;99.90;;;;;;5050335;28;20233;-83
2023/10/18 03:26:22;;;;;;;9.33;7.67;;;7.60;99.90;;;;;;5057094;28;20199;-86
2023/10/18 03:28:51;;;;;;;8.77;7.77;;;7.40;99.90;;;;;;5056593;28;20218;-83
2023/10/18 03:31:21;;;;;;;8.33;7.00;;;7.40;99.90;;;;;;5057582;28;20213;-83
2023/10/18 03:33:53;;;;;;;8.63;7.83;;;7.30;99.90;;;;;;5055652;28;20218;-86
2023/10/18 03:36:22;;;;;;;9.53;7.30;;;7.30;99.90;;;;;;5057776;28;20198;-83
2023/10/18 03:38:54;;;;;;;9.70;8.13;;;7.20;99.90;;;;;;5057251;28;20203;-83
2023/10/18 03:41:23;;;;;;;9.57;8.43;;;7.30;99.90;;;;;;5054849;28;20201;-84
2023/10/18 03:44:00;;;;;;;8.10;7.30;;;7.30;99.90;;;;;;5059139;28;20218;-83
2023/10/18 03:46:29;;;;;;;8.37;7.50;;;7.30;99.90;;;;;;5057882;28;20201;-84
2023/10/18 03:49:01;;;;;;;8.87;7.70;;;7.30;99.90;;;;;;5055225;28;20214;-83
2023/10/18 03:51:30;;;;;;;9.77;8.07;;;7.20;99.90;;;;;;5059485;28;20198;-83
2023/10/18 03:54:00;;;;;;;8.23;7.37;;;7.20;99.90;;;;;;5057502;28;20198;-82
2023/10/18 03:56:32;;;;;;;9.27;8.23;;;7.20;99.90;;;;;;5056294;28;20205;-86
2023/10/18 03:59:09;;;;;;;10.10;8.37;;;7.20;99.90;;;;;;5072478;28;20194;-84
2023/10/18 04:01:42;;;;;;;9.80;8.87;;;7.20;99.90;;;;;;5055239;28;20209;-82
2023/10/18 04:04:18;;;;;;;8.80;7.67;;;7.20;99.90;;;;;;5057300;28;20557;-84
2023/10/18 04:06:49;;;;;;;11.47;8.83;;;7.30;99.90;;;;;;5059491;28;20198;-85
2023/10/18 04:09:17;;;;;;;10.23;8.63;;;7.20;99.90;;;;;;5045263;28;20218;-83
2023/10/18 04:11:45;;;;;;;9.23;8.17;;;7.20;99.90;;;;;;5072464;28;20209;-83
2023/10/18 04:14:16;;;;;;;9.10;7.70;;;7.30;99.90;;;;;;5054447;28;20216;-83
2023/10/18 04:16:47;;;;;;;9.37;8.00;;;7.20;99.90;;;;;;5056174;28;20201;-89
2023/10/18 04:19:19;;;;;;;8.83;7.93;;;7.20;99.90;;;;;;5057221;28;20563;-83
2023/10/18 04:21:52;;;;;;;9.20;8.20;;;7.20;99.90;;;;;;5058125;28;20202;-83
2023/10/18 04:24:21;;;;;;;9.73;8.10;;;7.30;99.90;;;;;;5059332;28;20648;-83
2023/10/18 04:26:49;;;;;;;12.23;8.33;;;7.10;99.90;;;;;;5072253;28;20253;-83
2023/10/18 04:29:25;;;;;;;10.10;8.00;;;7.20;99.90;;;;;;5060704;28;20226;-83
2023/10/18 04:31:56;;;;;;;9.77;8.43;;;7.10;99.90;;;;;;5051307;28;20198;-84
2023/10/18 04:34:25;;;;;;;10.47;8.70;;;7.10;99.90;;;;;;5059751;28;20203;-83
2023/10/18 04:36:55;;;;;;;9.67;8.70;;;7.00;99.90;;;;;;5060087;28;20202;-85
2023/10/18 04:39:26;;;;;;;9.77;8.50;;;7.10;99.90;;;;;;5058458;28;20199;-84
2023/10/18 04:41:54;;;;;;;11.07;8.83;;;7.00;99.90;;;;;;5092124;28;20233;-84
2023/10/18 04:44:23;;;;;;;11.60;8.43;;;7.00;99.90;;;;;;5057787;28;20668;-82
2023/10/18 04:46:53;;;;;;;9.37;8.37;;;7.00;99.90;;;;;;5070997;28;20207;-83
2023/10/18 04:49:36;;;;;;;9.30;8.33;;;6.90;99.90;;;;;;5057374;28;20214;-82
2023/10/18 04:52:06;;;;;;;10.67;8.40;;;6.80;99.90;;;;;;5057230;28;20217;-83
2023/10/18 04:54:54;;;;;;;12.17;9.27;;;6.80;99.90;;;;;;5049907;28;20221;-83
2023/10/18 04:57:22;;;;;;;9.30;7.70;;;6.80;99.90;;;;;;5077953;28;20197;-83
2023/10/18 05:00:34;;;;;;;11.23;8.07;;;6.80;99.90;;;;;;5147010;27;20577;-85
2023/10/18 05:03:07;;;;;;;10.10;7.97;;;6.80;99.90;;;;;;5140892;27;20218;-82
2023/10/18 05:05:44;;;;;;;8.20;7.40;;;6.80;99.90;;;;;;5102293;28;20203;-82
2023/10/18 05:08:16;;;;;;;10.37;7.90;;;6.80;99.90;;;;;;5133611;28;20189;-85
2023/10/18 05:10:45;;;;;;;10.47;7.97;;;6.90;99.90;;;;;;5094159;28;20187;-84
2023/10/18 05:13:23;;;;;;;8.13;7.27;;;6.90;99.90;;;;;;5089794;28;20213;-85
2023/10/18 05:15:59;;;;;;;10.07;8.17;;;6.90;99.90;;;;;;5107749;28;20187;-85
2023/10/18 05:18:30;;;;;;;10.03;8.10;;;6.90;99.90;;;;;;5096452;28;20205;-83
2023/10/18 05:20:58;;;;;;;10.07;8.07;;;6.80;99.90;;;;;;5118922;28;20208;-82
2023/10/18 05:23:26;;;;;;;8.63;7.60;;;6.90;99.90;;;;;;5109856;28;20225;-83
2023/10/18 05:26:17;;;;;;;11.23;7.87;;;6.90;99.90;;;;;;5119756;28;20214;-81
2023/10/18 05:28:49;;;;;;;8.93;7.50;;;6.90;99.90;;;;;;5124422;27;20194;-81
2023/10/18 05:31:44;;;;;;;9.53;7.90;;;6.90;99.90;;;;;;5098558;28;20189;-81
2023/10/18 05:34:22;;;;;;;11.40;7.93;;;7.00;99.90;;;;;;5106094;28;20197;-82
2023/10/18 05:36:55;;;;;;;8.13;7.33;;;7.00;99.90;;;;;;5104666;28;20208;-82
2023/10/18 05:39:28;;;;;;;8.53;7.63;;;7.00;99.90;;;;;;5097287;28;20226;-80
2023/10/18 05:42:03;;;;;;;7.10;5.20;;;7.00;99.90;;;;;;5110352;28;20224;-77
2023/10/18 05:44:30;;;;;;;6.53;5.90;;;7.50;99.90;;;;;;5089041;28;20196;-77
2023/10/18 05:46:59;;;;;;;8.40;6.70;;;8.40;99.90;;;;;;5086538;28;20208;-77
2023/10/18 05:49:34;;;;;;;11.27;8.00;;;9.30;99.90;;;;;;5092923;28;20216;-81
2023/10/18 05:58:32;;;;;;;8.60;7.10;;;7.40;99.90;;;;;;4949459;28;20229;-82
2023/10/18 06:01:03;;;;;;;9.60;8.43;;;7.30;99.90;;;;;;5081858;28;20208;-79
2023/10/18 06:03:39;;;;;;;12.00;8.20;;;7.10;99.90;;;;;;5088604;28;20228;-79
2023/10/18 06:06:07;;;;;;;8.70;7.43;;;7.20;99.90;;;;;;5089662;28;20201;-80
2023/10/18 06:08:37;;;;;;;9.80;7.90;;;7.20;99.90;;;;;;5088520;28;20197;-80
2023/10/18 06:11:08;;;;;;;7.63;6.83;;;7.10;99.90;;;;;;5079812;28;20198;-80
2023/10/18 06:13:37;;;;;;;10.37;7.90;;;7.00;99.90;;;;;;5089541;28;20222;-79
2023/10/18 06:16:18;;;;;;;9.80;8.00;;;7.00;99.90;;;;;;5077120;28;20204;-79
2023/10/18 06:18:48;;;;;;;8.10;7.30;;;7.10;99.90;;;;;;5075591;28;20213;-79
2023/10/18 06:21:19;;;;;;;10.67;7.80;;;7.20;99.90;;;;;;5074619;28;20205;-79
2023/10/18 06:23:55;;;;;;;9.10;8.20;;;7.20;99.90;;;;;;5078401;28;20742;-79
2023/10/18 06:26:31;;;;;;;10.53;8.33;;;7.20;99.90;;;;;;5076160;28;20221;-81
2023/10/18 06:29:09;;;;;;;9.57;7.43;;;7.20;99.90;;;;;;5091620;28;20194;-79
2023/10/18 06:31:43;;;;;;;9.27;7.23;;;7.30;99.90;;;;;;5078678;28;20197;-81
2023/10/18 06:34:17;;;;;;;9.07;7.03;;;7.30;99.90;;;;;;5077250;28;20216;-82
2023/10/18 06:36:47;;;;;;;9.70;7.83;;;7.20;99.90;;;;;;5075164;28;20725;-80
2023/10/18 06:39:24;;;;;;;10.27;7.77;;;7.10;99.90;;;;;;5073934;28;20711;-81
2023/10/18 06:41:54;;;;;;;9.80;7.43;;;7.30;99.90;;;;;;5086273;28;20285;-80
2023/10/18 06:44:27;;;;;;;10.70;7.47;;;7.30;99.90;;;;;;5078162;28;20213;-82
2023/10/18 06:46:54;;;;;;;9.77;7.83;;;7.30;99.90;;;;;;5088635;28;20202;-81
2023/10/18 06:49:26;;;;;;;10.07;8.07;;;7.30;99.90;;;;;;5087285;28;20205;-81
2023/10/18 06:51:53;;;;;;;9.53;8.20;;;7.30;99.90;;;;;;5076539;28;20223;-81
2023/10/18 06:54:30;;;;;;;8.93;7.53;;;7.20;99.90;;;;;;5073231;28;20201;-82
2023/10/18 06:56:58;;;;;;;9.77;8.13;;;7.60;99.90;;;;;;5087572;28;20205;-83
2023/10/18 06:59:27;;;;;;;9.77;8.13;;;7.50;99.90;;;;;;5073988;28;20210;-81
2023/10/18 07:01:58;;;;;;;10.23;8.13;;;7.70;99.90;;;;;;5079664;28;20224;-81
2023/10/18 07:04:35;;;;;;;8.53;7.63;;;7.70;99.90;;;;;;5070149;28;20194;-81
2023/10/18 07:07:10;;;;;;;11.63;8.37;;;7.70;99.90;;;;;;5109622;28;20201;-82
2023/10/18 07:09:38;;;;;;;9.53;7.97;;;7.70;99.90;;;;;;5072508;28;20677;-82
2023/10/18 07:12:10;;;;;;;10.03;8.03;;;7.70;99.90;;;;;;5084503;28;20244;-82
2023/10/18 07:14:38;;;;;;;8.70;7.80;;;7.70;99.90;;;;;;5081137;28;20209;-82
2023/10/18 07:17:09;;;;;;;9.70;7.90;;;7.60;99.90;;;;;;5110675;28;20201;-81
2023/10/18 07:22:17;;;;;;;9.17;7.47;;;7.60;99.90;;;;;;5010325;28;20224;-83
2023/10/18 07:24:47;;;;;;;8.60;7.50;;;7.70;99.90;;;;;;5021519;28;20191;-83
2023/10/18 07:27:17;;;;;;;8.43;7.20;;;7.80;99.90;;;;;;5013736;28;20204;-83
2023/10/18 07:29:49;;;;;;;10.17;7.43;;;7.80;99.90;;;;;;5014759;28;20210;-83
2023/10/18 07:32:20;;;;;;;9.03;7.37;;;7.90;99.90;;;;;;5014606;28;20672;-83
2023/10/18 07:34:49;;;;;;;7.63;6.63;;;7.70;99.90;;;;;;5011255;28;20704;-83
2023/10/18 07:37:24;;;;;;;8.83;7.13;;;7.70;99.90;;;;;;5028175;28;20214;-84
2023/10/18 07:39:57;;;;;;;10.63;7.23;;;7.80;99.90;;;;;;5031084;28;20215;-83
2023/10/18 07:42:26;;;;;;;8.10;6.97;;;7.70;99.90;;;;;;5004109;28;20196;-83
2023/10/18 07:44:55;;;;;;;8.30;6.77;;;7.70;99.90;;;;;;5004428;28;20208;-83
2023/10/18 07:47:25;;;;;;;9.30;7.07;;;7.90;99.90;;;;;;5006662;28;20192;-83
2023/10/18 07:49:55;;;;;;;10.23;7.90;;;7.80;99.90;;;;;;5028747;28;20279;-83
2023/10/18 07:52:24;;;;;;;9.13;7.33;;;7.80;99.90;;;;;;5015064;28;20215;-83
2023/10/18 07:54:51;;;;;;;8.73;7.63;;;7.80;99.90;;;;;;5009221;28;20200;-83
2023/10/18 07:57:29;;;;;;;8.33;7.47;;;7.70;99.90;;;;;;5017442;28;20561;-81
2023/10/18 08:00:21;;;;;;;9.30;7.13;;;7.80;99.90;;;;;;5019869;28;20227;-83
2023/10/18 08:02:43;;;;;;;8.90;7.20;;;7.90;99.90;;;;;;5041179;28;20204;-82
2023/10/18 08:05:12;;;;;;;8.87;6.80;;;8.00;99.90;;;;;;5021967;28;20198;-82
2023/10/18 08:07:48;;;;;;;7.80;6.37;;;8.10;99.90;;;;;;5028440;28;20203;-82
2023/10/18 08:10:19;;;;;;;7.43;6.73;;;8.20;99.90;;;;;;5024293;28;20227;-82
2023/10/18 08:12:49;;;;;;;8.40;7.13;;;8.30;99.90;;;;;;5020413;28;20222;-83
2023/10/18 08:15:17;;;;;;;8.33;6.83;;;8.30;99.90;;;;;;5016892;28;20212;-82
2023/10/18 08:17:46;;;;;;;10.53;7.00;;;8.30;99.90;;;;;;5020408;28;20687;-82
2023/10/18 08:23:18;;;;;;;12.17;7.07;;;8.40;99.90;;;;;;5006069;28;20200;-82
2023/10/18 08:25:51;;;;;;;10.97;6.40;;;8.60;99.90;;;;;;5016726;28;20200;-82
2023/10/18 08:28:18;;;;;;;7.73;7.00;;;8.60;99.90;;;;;;5030467;28;20585;-81
2023/10/18 08:33:27;;;;;;;8.73;6.53;;;8.50;99.90;;;;;;5016516;28;20183;-82
2023/10/18 08:35:58;;;;;;;7.67;6.70;;;8.40;99.90;;;;;;5014255;28;20201;-81
2023/10/18 08:38:41;;;;;;;9.23;7.00;;;8.50;99.90;;;;;;5032970;28;20200;-82
2023/10/18 08:41:15;;;;;;;9.97;7.27;;;8.80;99.90;;;;;;5030159;28;20223;-81
2023/10/18 08:43:57;;;;;;;8.27;7.20;;;9.10;99.90;;;;;;5034827;28;20203;-81
2023/10/18 08:46:26;;;;;;;9.23;7.67;;;8.60;99.90;;;;;;5030618;28;20200;-82
2023/10/18 08:48:56;;;;;;;7.97;6.97;;;8.50;99.90;;;;;;5032212;28;20681;-82
2023/10/18 08:51:27;;;;;;;9.83;7.07;;;8.80;99.90;;;;;;5022730;28;20211;-82
2023/10/18 08:54:01;;;;;;;7.70;6.93;;;8.90;99.90;;;;;;5031525;28;20204;-82
2023/10/18 08:56:32;;;;;;;8.60;7.00;;;8.90;99.90;;;;;;5032608;28;20208;-81
2023/10/18 08:59:05;;;;;;;8.73;6.87;;;9.00;99.90;;;;;;5032934;28;20206;-82
2023/10/18 09:01:34;;;;;;;8.00;6.63;;;9.40;99.90;;;;;;5011979;28;20227;-81
2023/10/18 09:04:02;;;;;;;10.80;7.47;;;9.50;99.90;;;;;;5014500;28;20211;-83
2023/10/18 09:06:31;;;;;;;9.03;7.23;;;9.40;99.90;;;;;;5019247;28;20199;-81
2023/10/18 09:09:07;;;;;;;8.53;7.53;;;9.40;99.90;;;;;;5033161;28;20200;-80
2023/10/18 09:11:36;;;;;;;8.50;7.50;;;9.50;99.90;;;;;;4999532;28;20230;-81
2023/10/18 09:14:08;;;;;;;8.80;7.57;;;9.60;99.90;;;;;;5017921;28;20212;-81
2023/10/18 09:16:39;;;;;;;9.03;7.33;;;9.90;99.90;;;;;;5017970;28;20196;-81
2023/10/18 09:19:08;;;;;;;9.03;8.03;;;9.70;99.90;;;;;;5032997;28;20199;-81
2023/10/18 09:21:44;;;;;;;8.87;6.70;;;9.80;99.90;;;;;;5017429;28;20211;-79
2023/10/18 09:24:14;;;;;;;8.27;7.03;;;10.00;99.90;;;;;;5032881;28;20699;-81
2023/10/18 09:26:45;;;;;;;8.67;7.20;;;10.00;99.90;;;;;;5014092;28;20200;-81
2023/10/18 09:29:13;;;;;;;11.07;7.63;;;10.10;99.90;;;;;;5014938;28;20208;-82
2023/10/18 09:31:54;;;;;;;11.50;7.70;;;10.20;99.90;;;;;;5032227;28;20215;-81
2023/10/18 09:34:23;;;;;;;8.90;6.97;;;10.20;99.90;;;;;;5015901;28;20211;-81
2023/10/18 09:36:56;;;;;;;12.87;7.00;;;10.40;99.90;;;;;;5030471;28;20577;-81
2023/10/18 09:39:37;;;;;;;7.83;6.97;;;10.40;99.90;;;;;;5018401;28;20207;-81
2023/10/18 09:42:05;;;;;;;10.50;7.40;;;10.60;99.90;;;;;;5025389;28;20234;-81
2023/10/18 09:44:33;;;;;;;7.20;6.40;;;10.50;99.90;;;;;;5032319;28;20196;-81
2023/10/18 09:47:01;;;;;;;9.20;7.20;;;10.50;99.90;;;;;;5035362;28;20208;-81
2023/10/18 09:49:31;;;;;;;10.43;7.20;;;10.30;99.90;;;;;;5018833;28;20207;-81
2023/10/18 09:52:03;;;;;;;8.80;7.17;;;10.40;99.90;;;;;;5019255;28;20230;-81
2023/10/18 09:54:35;;;;;;;10.97;7.33;;;10.40;99.90;;;;;;5035575;28;20211;-82
2023/10/18 09:57:06;;;;;;;9.17;6.93;;;10.60;99.90;;;;;;5014801;28;20217;-81
2023/10/18 09:59:37;;;;;;;7.93;7.10;;;10.80;99.90;;;;;;5010072;28;20211;-81
2023/10/18 10:02:08;;;;;;;11.03;7.73;;;10.80;99.90;;;;;;5011488;28;20224;-82
2023/10/18 10:04:36;;;;;;;9.00;7.60;;;10.90;99.90;;;;;;5021285;28;20196;-83
2023/10/18 10:09:59;;;;;;;9.23;7.27;;;10.80;99.90;;;;;;5008841;28;20204;-82
2023/10/18 10:12:28;;;;;;;10.73;7.57;;;10.90;99.90;;;;;;5034428;28;20202;-81
2023/10/18 10:14:58;;;;;;;8.03;6.47;;;11.00;99.90;;;;;;5034277;28;20227;-80
2023/10/18 10:17:28;;;;;;;8.07;6.47;;;11.00;99.90;;;;;;5019592;28;20214;-81
2023/10/18 10:20:11;;;;;;;8.83;6.53;;;11.70;99.90;;;;;;5023555;28;20200;-80
2023/10/18 10:22:41;;;;;;;8.63;6.53;;;12.10;99.90;;;;;;5031320;28;20204;-82
2023/10/18 10:25:22;;;;;;;7.23;6.07;;;12.10;99.90;;;;;;5016229;28;20214;-85
2023/10/18 10:27:59;;;;;;;9.40;6.25;;;12.20;99.90;;;;;;5017053;28;20203;-86
2023/10/18 10:30:35;;;;;;;9.73;6.97;;;12.30;99.90;;;;;;5034107;28;20234;-86
2023/10/18 10:33:05;;;;;;;8.20;6.80;;;12.10;99.90;;;;;;5034346;28;20195;-86
2023/10/18 10:35:35;;;;;;;8.35;6.75;;;11.90;99.90;;;;;;5007743;28;20210;-86
2023/10/18 10:38:18;;;;;;;8.90;7.30;;;11.80;99.90;;;;;;5014971;28;20203;-84
2023/10/18 10:40:49;;;;;;;25.92;13.73;;;11.80;99.90;;;;;;5035503;28;20212;-83
2023/10/18 10:43:19;;;;;;;9.63;7.88;;;11.90;99.90;;;;;;5034477;28;20200;-83
2023/10/18 10:45:54;;;;;;;8.25;6.25;;;11.80;99.90;;;;;;5020347;28;20206;-84
2023/10/18 10:48:45;;;;;;;8.43;6.87;;;11.90;99.90;;;;;;5029615;28;20196;-83
2023/10/18 10:51:21;;;;;;;8.90;6.68;;;11.90;99.90;;;;;;5027826;28;20231;-83
2023/10/18 10:53:50;;;;;;;8.85;6.18;;;11.80;99.90;;;;;;5019043;28;20206;-84
2023/10/18 10:56:47;;;;;;;7.75;6.30;;;11.90;99.90;;;;;;5034435;28;20561;-84
2023/10/18 10:59:17;;;;;;;8.50;6.60;;;11.90;99.90;;;;;;5029334;28;20681;-85
2023/10/18 11:02:06;;;;;;;7.43;6.73;;;11.90;99.90;;;;;;5017963;28;20223;-83
2023/10/18 11:04:58;;;;;;;7.28;6.53;;;11.90;99.90;;;;;;5033390;28;20191;-83
2023/10/18 11:07:27;;;;;;;6.80;6.05;;;11.80;99.90;;;;;;5015682;28;20212;-83
2023/10/18 11:10:06;;;;;;;6.82;6.22;;;12.00;99.90;;;;;;5019398;28;20207;-83
2023/10/18 11:12:35;;;;;;;6.93;6.20;;;12.30;99.90;;;;;;5019216;28;20192;-83
2023/10/18 11:15:16;;;;;;;9.15;6.72;;;12.00;99.90;;;;;;5018473;28;20199;-83
2023/10/18 11:17:45;;;;;;;8.57;6.47;;;11.90;99.90;;;;;;5008838;28;20196;-83
2023/10/18 11:20:19;;;;;;;9.65;7.03;;;11.90;99.90;;;;;;5016981;28;20736;-82
2023/10/18 11:22:52;;;;;;;7.18;6.38;;;12.30;99.90;;;;;;5018920;28;20207;-83
2023/10/18 11:25:33;;;;;;;7.47;6.40;;;12.80;99.90;;;;;;5034069;28;20195;-83
2023/10/18 11:28:20;;;;;;;8.73;6.63;;;12.80;99.90;;;;;;5033457;28;20657;-82
2023/10/18 11:30:49;;;;;;;6.68;5.88;;;12.80;99.90;;;;;;5011332;28;20224;-82
2023/10/18 11:33:46;;;;;;;6.55;5.93;;;13.30;99.90;;;;;;5028969;28;20212;-83
2023/10/18 11:36:19;;;;;;;6.20;5.43;;;13.80;99.90;;;;;;5027580;28;20254;-82
2023/10/18 11:41:44;;;;;;;7.82;5.88;;;13.80;99.90;;;;;;4986410;28;20220;-84
2023/10/18 11:44:26;;;;;;;6.53;5.85;;;14.40;99.90;;;;;;5006943;28;20210;-84
2023/10/18 11:47:01;;;;;;;8.35;5.78;;;14.30;99.90;;;;;;5015671;28;20204;-83
2023/10/18 11:49:36;;;;;;;6.63;5.32;;;15.00;99.90;;;;;;5036905;28;20206;-84
2023/10/18 11:52:05;;;;;;;6.50;5.88;;;15.20;99.90;;;;;;5019931;28;20217;-84
2023/10/18 11:54:33;;;;;;;7.25;5.38;;;15.20;99.20;;;;;;5031648;28;20203;-84
2023/10/18 11:57:05;;;;;;;6.13;5.47;;;15.00;99.90;;;;;;5009810;28;20217;-84
2023/10/18 11:59:52;;;;;;;8.05;5.70;;;14.60;99.90;;;;;;5037600;28;20199;-84
2023/10/18 12:02:28;;;;;;;5.80;5.13;;;15.00;99.90;;;;;;5022449;28;20219;-84
2023/10/18 12:05:06;;;;;;;6.70;5.15;;;15.50;99.90;;;;;;5036025;28;20235;-84
2023/10/18 12:07:45;;;;;;;6.30;5.13;;;15.40;99.60;;;;;;5021223;28;20204;-84
2023/10/18 12:10:17;;;;;;;7.88;5.10;;;15.70;99.60;;;;;;5022364;28;20223;-84
2023/10/18 12:13:17;;;;;;;;;;;;;;;;;;;;;
2023/10/18 12:16:41;;;;;;;7.28;5.45;;;15.70;99.40;;;;;;5024600;28;20203;-83
2023/10/18 12:19:19;;;;;;;5.60;4.90;;;16.70;97.60;;;;;;5020582;28;20199;-84
2023/10/18 12:21:59;;;;;;;7.30;4.70;;;16.40;95.60;;;;;;5031452;28;20223;-84
2023/10/18 12:24:34;;;;;;;7.07;5.05;;;16.60;96.30;;;;;;5020519;28;20570;-84
2023/10/18 12:28:00;;;;;;;7.53;4.85;;;17.10;96.30;;;;;;5015211;28;20206;-84
2023/10/18 12:30:45;;;;;;;6.05;4.20;;;16.20;96.60;;;;;;5016476;28;20219;-83
2023/10/18 12:33:26;;;;;;;4.20;3.80;;;16.30;97.20;;;;;;5035325;28;20200;-83
2023/10/18 12:35:59;;;;;;;5.65;4.55;;;16.60;95.40;;;;;;5028578;28;20211;-83
2023/10/18 12:38:37;;;;;;;5.55;4.45;;;15.80;96.50;;;;;;5018182;28;20207;-83
2023/10/18 12:41:19;;;;;;;4.45;3.55;;;16.90;95.20;;;;;;5031053;28;20215;-84
2023/10/18 12:43:52;;;;;;;6.03;3.83;;;16.40;95.70;;;;;;5018734;28;20200;-83
2023/10/18 12:46:41;;;;;;;5.95;3.88;;;16.70;94.90;;;;;;5018344;28;20234;-82
2023/10/18 12:49:22;;;;;;;5.80;4.18;;;16.90;94.10;;;;;;5015058;28;20204;-84
2023/10/18 12:51:59;;;;;;;6.28;4.18;;;16.60;94.50;;;;;;5018057;28;20216;-85
2023/10/18 12:54:36;;;;;;;7.15;3.97;;;17.20;93.50;;;;;;5038547;28;20213;-84
2023/10/18 12:57:15;;;;;;;5.10;4.18;;;17.60;92.90;;;;;;5033970;28;20203;-84
2023/10/18 12:59:59;;;;;;;7.28;4.03;;;17.70;92.00;;;;;;5032827;28;20203;-84
2023/10/18 13:03:15;;;;;;;5.20;3.80;;;17.00;93.50;;;;;;5040323;28;20262;-84
2023/10/18 13:06:15;;;;;;;5.47;4.40;;;16.90;93.10;;;;;;5038850;28;20545;-83
2023/10/18 13:09:44;;;;;;;;;;;;;;;;;;;;;
2023/10/18 13:12:23;;;;;;;5.43;4.82;;;17.40;93.80;;;;;;5022933;28;20199;-83
2023/10/18 13:14:58;;;;;;;4.63;4.10;;;18.00;93.00;;;;;;5023715;28;20203;-83
2023/10/18 13:17:32;;;;;;;4.82;3.78;;;18.30;92.50;;;;;;5025226;28;20188;-83
2023/10/18 13:20:05;;;;;;;5.03;3.95;;;17.90;92.20;;;;;;5018975;28;20215;-83
2023/10/18 13:22:42;;;;;;;6.07;4.07;;;18.00;92.80;;;;;;5021207;28;20226;-83
2023/10/18 13:25:25;;;;;;;5.53;3.75;;;17.80;93.30;;;;;;5035169;28;20199;-85
2023/10/18 13:28:05;;;;;;;7.53;4.25;;;17.70;93.40;;;;;;5034189;28;20195;-84
2023/10/18 13:30:39;;;;;;;6.15;4.18;;;16.60;93.60;;;;;;5034424;28;20219;-84
2023/10/18 13:33:12;;;;;;;6.20;4.68;;;16.20;94.70;;;;;;5017579;28;20210;-83
2023/10/18 13:35:44;;;;;;;4.13;3.70;;;16.60;95.20;;;;;;5016172;28;20195;-84
2023/10/18 13:38:23;;;;;;;5.20;3.65;;;16.20;95.50;;;;;;5017119;28;20210;-83
2023/10/18 13:40:51;;;;;;;7.20;3.95;;;16.90;94.70;;;;;;5018452;28;20220;-84
2023/10/18 13:43:35;;;;;;;3.95;3.50;;;16.60;93.90;;;;;;5016030;28;20224;-84
2023/10/18 13:46:08;;;;;;;4.60;3.88;;;16.20;95.20;;;;;;5017133;28;20214;-83